sensor_id;sensor_type;location;lat;lon;timestamp;pressure;altitude;pressure_sealevel;temperature;humidity
76864;BME280;65834;52.364;9.754;2023-10-08T00:01:51;101399.91;;;14.82;82.54
76864;BME280;65834;52.364;9.754;2023-10-08T00:04:22;101408.47;;;14.79;82.44
76864;BME280;65834;52.364;9.754;2023-10-08T00:06:53;101427.72;;;14.77;83.07
76864;BME280;65834;52.364;9.754;2023-10-08T00:09:23;101440.94;;;14.80;83.45
76864;BME280;65834;52.364;9.754;2023-10-08T00:11:52;101446.16;;;14.75;83.83
76864;BME280;65834;52.364;9.754;2023-10-08T00:14:25;101450.81;;;14.81;82.81
76864;BME280;65834;52.364;9.754;2023-10-08T00:16:55;101438.50;;;14.85;81.64
76864;BME280;65834;52.364;9.754;2023-10-08T00:19:24;101440.06;;;14.73;81.46
76864;BME280;65834;52.364;9.754;2023-10-08T00:22:01;101454.06;;;14.70;82.09
76864;BME280;65834;52.364;9.754;2023-10-08T00:24:32;101458.97;;;14.60;81.69
76864;BME280;65834;52.364;9.754;2023-10-08T00:27:02;101448.28;;;14.58;82.07
76864;BME280;65834;52.364;9.754;2023-10-08T00:29:35;101449.50;;;14.56;81.69
76864;BME280;65834;52.364;9.754;2023-10-08T00:32:09;101455.28;;;14.32;81.88
76864;BME280;65834;52.364;9.754;2023-10-08T00:34:55;101462.53;;;14.39;81.49
76864;BME280;65834;52.364;9.754;2023-10-08T00:37:25;101480.63;;;14.32;81.68
76864;BME280;65834;52.364;9.754;2023-10-08T00:39:56;101486.44;;;14.29;81.39
76864;BME280;65834;52.364;9.754;2023-10-08T00:42:28;101493.88;;;14.21;82.50
76864;BME280;65834;52.364;9.754;2023-10-08T00:45:00;101500.63;;;14.10;83.28
76864;BME280;65834;52.364;9.754;2023-10-08T00:47:31;101514.78;;;14.20;81.75
76864;BME280;65834;52.364;9.754;2023-10-08T00:50:08;101524.84;;;14.20;82.10
76864;BME280;65834;52.364;9.754;2023-10-08T00:52:47;101531.34;;;14.33;81.73
76864;BME280;65834;52.364;9.754;2023-10-08T00:55:28;101541.16;;;14.20;83.19
76864;BME280;65834;52.364;9.754;2023-10-08T00:58:01;101536.63;;;14.12;82.73
76864;BME280;65834;52.364;9.754;2023-10-08T01:00:39;101540.41;;;13.96;83.48
76864;BME280;65834;52.364;9.754;2023-10-08T01:03:09;101540.22;;;13.98;83.86
76864;BME280;65834;52.364;9.754;2023-10-08T01:05:46;101551.09;;;13.98;84.19
76864;BME280;65834;52.364;9.754;2023-10-08T01:08:17;101555.09;;;13.87;83.47
76864;BME280;65834;52.364;9.754;2023-10-08T01:10:59;101573.28;;;13.72;84.05
76864;BME280;65834;52.364;9.754;2023-10-08T01:13:30;101587.31;;;13.84;84.23
76864;BME280;65834;52.364;9.754;2023-10-08T01:16:12;101590.56;;;13.79;81.67
76864;BME280;65834;52.364;9.754;2023-10-08T01:18:42;101590.19;;;13.82;81.49
76864;BME280;65834;52.364;9.754;2023-10-08T01:21:17;101600.56;;;13.64;79.49
76864;BME280;65834;52.364;9.754;2023-10-08T01:24:04;101606.59;;;13.51;79.52
76864;BME280;65834;52.364;9.754;2023-10-08T01:26:36;101602.88;;;13.30;79.49
76864;BME280;65834;52.364;9.754;2023-10-08T01:29:08;101597.16;;;13.25;80.40
76864;BME280;65834;52.364;9.754;2023-10-08T01:31:46;101606.69;;;13.21;80.45
76864;BME280;65834;52.364;9.754;2023-10-08T01:34:16;101607.69;;;13.20;80.24
76864;BME280;65834;52.364;9.754;2023-10-08T01:36:53;101603.34;;;13.11;80.76
76864;BME280;65834;52.364;9.754;2023-10-08T01:39:25;101611.69;;;13.09;80.00
76864;BME280;65834;52.364;9.754;2023-10-08T01:41:58;101590.25;;;13.14;80.35
76864;BME280;65834;52.364;9.754;2023-10-08T01:44:29;101590.94;;;13.16;81.15
76864;BME280;65834;52.364;9.754;2023-10-08T01:47:02;101603.47;;;13.17;82.15
76864;BME280;65834;52.364;9.754;2023-10-08T01:49:32;101614.53;;;13.16;82.39
76864;BME280;65834;52.364;9.754;2023-10-08T01:52:04;101621.84;;;13.15;81.87
76864;BME280;65834;52.364;9.754;2023-10-08T01:54:42;101622.31;;;13.19;80.90
76864;BME280;65834;52.364;9.754;2023-10-08T01:57:12;101604.44;;;13.24;81.34
76864;BME280;65834;52.364;9.754;2023-10-08T01:59:42;101617.38;;;13.22;82.02
76864;BME280;65834;52.364;9.754;2023-10-08T02:02:12;101632.28;;;13.26;81.24
76864;BME280;65834;52.364;9.754;2023-10-08T02:04:42;101618.38;;;13.21;80.27
76864;BME280;65834;52.364;9.754;2023-10-08T02:07:12;101620.22;;;13.29;81.08
76864;BME280;65834;52.364;9.754;2023-10-08T02:09:44;101622.81;;;13.22;81.68
76864;BME280;65834;52.364;9.754;2023-10-08T02:12:15;101619.25;;;13.22;81.89
76864;BME280;65834;52.364;9.754;2023-10-08T02:14:44;101618.38;;;13.21;82.10
76864;BME280;65834;52.364;9.754;2023-10-08T02:17:15;101623.47;;;13.24;82.75
76864;BME280;65834;52.364;9.754;2023-10-08T02:19:46;101623.31;;;13.26;82.14
76864;BME280;65834;52.364;9.754;2023-10-08T02:22:16;101623.09;;;13.27;81.28
76864;BME280;65834;52.364;9.754;2023-10-08T02:24:48;101620.22;;;13.29;82.74
76864;BME280;65834;52.364;9.754;2023-10-08T02:27:20;101616.94;;;13.33;82.44
76864;BME280;65834;52.364;9.754;2023-10-08T02:29:49;101611.25;;;13.20;81.51
76864;BME280;65834;52.364;9.754;2023-10-08T02:32:19;101610.59;;;13.18;81.45
76864;BME280;65834;52.364;9.754;2023-10-08T02:34:49;101606.91;;;13.11;82.16
76864;BME280;65834;52.364;9.754;2023-10-08T02:37:20;101610.97;;;13.15;82.27
76864;BME280;65834;52.364;9.754;2023-10-08T02:39:52;101619.59;;;13.19;82.18
76864;BME280;65834;52.364;9.754;2023-10-08T02:42:24;101616.56;;;13.14;81.58
76864;BME280;65834;52.364;9.754;2023-10-08T02:44:54;101616.09;;;13.10;81.91
76864;BME280;65834;52.364;9.754;2023-10-08T02:47:27;101625.06;;;13.11;80.74
76864;BME280;65834;52.364;9.754;2023-10-08T02:49:59;101606.25;;;13.09;81.09
76864;BME280;65834;52.364;9.754;2023-10-08T02:52:34;101617.97;;;13.10;81.55
76864;BME280;65834;52.364;9.754;2023-10-08T02:55:07;101623.69;;;13.15;82.06
76864;BME280;65834;52.364;9.754;2023-10-08T02:57:50;101621.63;;;13.17;81.93
76864;BME280;65834;52.364;9.754;2023-10-08T03:00:20;101633.53;;;13.16;83.08
76864;BME280;65834;52.364;9.754;2023-10-08T03:02:56;101638.97;;;13.07;83.85
76864;BME280;65834;52.364;9.754;2023-10-08T03:05:31;101618.47;;;13.13;83.84
76864;BME280;65834;52.364;9.754;2023-10-08T03:08:04;101597.91;;;13.11;84.17
76864;BME280;65834;52.364;9.754;2023-10-08T03:10:40;101616.19;;;13.17;83.47
76864;BME280;65834;52.364;9.754;2023-10-08T03:13:11;101616.03;;;13.18;83.97
76864;BME280;65834;52.364;9.754;2023-10-08T03:15:42;101609.72;;;13.26;84.77
76864;BME280;65834;52.364;9.754;2023-10-08T03:18:25;101610.78;;;13.17;84.30
76864;BME280;65834;52.364;9.754;2023-10-08T03:21:03;101614.41;;;13.09;83.85
76864;BME280;65834;52.364;9.754;2023-10-08T03:23:50;101626.97;;;13.10;84.09
76864;BME280;65834;52.364;9.754;2023-10-08T03:26:27;101646.28;;;13.15;84.26
76864;BME280;65834;52.364;9.754;2023-10-08T03:29:05;101656.16;;;13.08;84.32
76864;BME280;65834;52.364;9.754;2023-10-08T03:31:36;101665.81;;;13.11;83.94
76864;BME280;65834;52.364;9.754;2023-10-08T03:34:21;101670.59;;;13.09;84.09
76864;BME280;65834;52.364;9.754;2023-10-08T03:37:00;101673.31;;;13.09;85.33
76864;BME280;65834;52.364;9.754;2023-10-08T03:39:34;101678.06;;;13.07;85.18
76864;BME280;65834;52.364;9.754;2023-10-08T03:42:22;101679.72;;;13.16;85.21
76864;BME280;65834;52.364;9.754;2023-10-08T03:44:53;101673.25;;;13.17;84.12
76864;BME280;65834;52.364;9.754;2023-10-08T03:47:23;101675.16;;;13.16;84.42
76864;BME280;65834;52.364;9.754;2023-10-08T03:49:53;101667.34;;;13.05;84.12
76864;BME280;65834;52.364;9.754;2023-10-08T03:52:23;101669.75;;;13.08;85.14
76864;BME280;65834;52.364;9.754;2023-10-08T03:54:53;101662.97;;;13.04;85.72
76864;BME280;65834;52.364;9.754;2023-10-08T03:57:34;101678.91;;;13.07;86.79
76864;BME280;65834;52.364;9.754;2023-10-08T04:00:15;101684.50;;;13.05;85.26
76864;BME280;65834;52.364;9.754;2023-10-08T04:02:55;101687.91;;;12.99;85.00
76864;BME280;65834;52.364;9.754;2023-10-08T04:05:28;101685.69;;;13.03;85.13
76864;BME280;65834;52.364;9.754;2023-10-08T04:08:11;101692.16;;;13.02;84.67
76864;BME280;65834;52.364;9.754;2023-10-08T04:10:51;101693.53;;;12.98;85.15
76864;BME280;65834;52.364;9.754;2023-10-08T04:13:36;101700.28;;;13.02;85.57
76864;BME280;65834;52.364;9.754;2023-10-08T04:16:15;101706.28;;;12.97;85.21
76864;BME280;65834;52.364;9.754;2023-10-08T04:18:46;101718.16;;;12.96;85.49
76864;BME280;65834;52.364;9.754;2023-10-08T04:21:18;101718.66;;;13.00;85.03
76864;BME280;65834;52.364;9.754;2023-10-08T04:23:48;101717.44;;;13.02;85.43
76864;BME280;65834;52.364;9.754;2023-10-08T04:26:20;101716.59;;;13.02;85.51
76864;BME280;65834;52.364;9.754;2023-10-08T04:28:54;101725.78;;;13.01;85.20
76864;BME280;65834;52.364;9.754;2023-10-08T04:31:25;101729.50;;;13.00;86.08
76864;BME280;65834;52.364;9.754;2023-10-08T04:34:04;101723.44;;;12.98;85.26
76864;BME280;65834;52.364;9.754;2023-10-08T04:36:37;101729.31;;;13.01;85.25
76864;BME280;65834;52.364;9.754;2023-10-08T04:39:07;101729.06;;;12.88;83.87
76864;BME280;65834;52.364;9.754;2023-10-08T04:41:42;101717.16;;;12.89;84.39
76864;BME280;65834;52.364;9.754;2023-10-08T04:44:17;101715.97;;;12.92;84.89
76864;BME280;65834;52.364;9.754;2023-10-08T04:46:48;101718.03;;;12.82;83.53
76864;BME280;65834;52.364;9.754;2023-10-08T04:49:20;101732.63;;;12.81;84.89
76864;BME280;65834;52.364;9.754;2023-10-08T04:52:01;101732.28;;;12.84;84.64
76864;BME280;65834;52.364;9.754;2023-10-08T04:54:35;101738.72;;;12.91;85.10
76864;BME280;65834;52.364;9.754;2023-10-08T04:57:07;101736.00;;;12.91;85.02
76864;BME280;65834;52.364;9.754;2023-10-08T04:59:45;101732.47;;;12.82;83.96
76864;BME280;65834;52.364;9.754;2023-10-08T05:02:17;101723.63;;;12.80;84.14
76864;BME280;65834;52.364;9.754;2023-10-08T05:05:00;101731.97;;;12.79;83.89
76864;BME280;65834;52.364;9.754;2023-10-08T05:07:42;101715.13;;;12.83;85.07
76864;BME280;65834;52.364;9.754;2023-10-08T05:10:24;101736.34;;;12.88;84.74
76864;BME280;65834;52.364;9.754;2023-10-08T05:13:12;101725.50;;;12.88;84.13
76864;BME280;65834;52.364;9.754;2023-10-08T05:15:45;101736.66;;;12.93;83.71
76864;BME280;65834;52.364;9.754;2023-10-08T05:18:30;101740.94;;;12.87;83.76
76864;BME280;65834;52.364;9.754;2023-10-08T05:21:21;101758.94;;;12.88;82.88
76864;BME280;65834;52.364;9.754;2023-10-08T05:24:07;101766.38;;;12.86;83.86
76864;BME280;65834;52.364;9.754;2023-10-08T05:26:40;101775.03;;;12.98;83.37
76864;BME280;65834;52.364;9.754;2023-10-08T05:29:26;101776.91;;;12.89;83.11
76864;BME280;65834;52.364;9.754;2023-10-08T05:32:21;101776.41;;;12.78;83.36
76864;BME280;65834;52.364;9.754;2023-10-08T05:35:18;101772.16;;;12.83;83.49
76864;BME280;65834;52.364;9.754;2023-10-08T05:38:16;101777.94;;;12.80;83.67
76864;BME280;65834;52.364;9.754;2023-10-08T05:41:05;101787.78;;;12.81;85.16
76864;BME280;65834;52.364;9.754;2023-10-08T05:43:43;101796.44;;;12.85;84.22
76864;BME280;65834;52.364;9.754;2023-10-08T05:46:41;101795.75;;;12.83;84.78
76864;BME280;65834;52.364;9.754;2023-10-08T05:49:26;101800.81;;;12.86;85.35
76864;BME280;65834;52.364;9.754;2023-10-08T05:52:05;101793.53;;;12.86;85.95
76864;BME280;65834;52.364;9.754;2023-10-08T05:54:52;101801.03;;;12.84;84.69
76864;BME280;65834;52.364;9.754;2023-10-08T05:57:34;101810.72;;;12.79;84.52
76864;BME280;65834;52.364;9.754;2023-10-08T06:00:14;101819.19;;;12.76;85.23
76864;BME280;65834;52.364;9.754;2023-10-08T06:02:58;101818.16;;;12.77;85.65
76864;BME280;65834;52.364;9.754;2023-10-08T06:06:03;101825.13;;;12.79;86.20
76864;BME280;65834;52.364;9.754;2023-10-08T06:08:45;101819.72;;;12.79;86.23
76864;BME280;65834;52.364;9.754;2023-10-08T06:11:19;101820.00;;;12.92;87.18
76864;BME280;65834;52.364;9.754;2023-10-08T06:14:08;101807.63;;;12.98;87.16
76864;BME280;65834;52.364;9.754;2023-10-08T06:16:55;101818.13;;;13.01;86.31
76864;BME280;65834;52.364;9.754;2023-10-08T06:19:40;101835.94;;;13.03;86.74
76864;BME280;65834;52.364;9.754;2023-10-08T06:22:12;101826.59;;;13.06;86.19
76864;BME280;65834;52.364;9.754;2023-10-08T06:24:42;101826.94;;;13.03;86.21
76864;BME280;65834;52.364;9.754;2023-10-08T06:27:11;101832.41;;;12.95;85.52
76864;BME280;65834;52.364;9.754;2023-10-08T06:29:43;101836.63;;;12.97;86.17
76864;BME280;65834;52.364;9.754;2023-10-08T06:32:13;101843.59;;;13.00;87.18
76864;BME280;65834;52.364;9.754;2023-10-08T06:34:45;101856.50;;;12.98;86.32
76864;BME280;65834;52.364;9.754;2023-10-08T06:37:17;101853.28;;;12.94;85.50
76864;BME280;65834;52.364;9.754;2023-10-08T06:39:47;101854.97;;;12.95;85.88
76864;BME280;65834;52.364;9.754;2023-10-08T06:42:17;101850.38;;;12.96;85.87
76864;BME280;65834;52.364;9.754;2023-10-08T06:44:47;101849.06;;;12.92;86.01
76864;BME280;65834;52.364;9.754;2023-10-08T06:47:16;101863.44;;;13.00;85.83
76864;BME280;65834;52.364;9.754;2023-10-08T06:49:48;101866.50;;;13.05;85.81
76864;BME280;65834;52.364;9.754;2023-10-08T06:52:21;101870.91;;;13.15;85.99
76864;BME280;65834;52.364;9.754;2023-10-08T06:54:53;101901.81;;;13.14;84.85
76864;BME280;65834;52.364;9.754;2023-10-08T06:57:23;101889.59;;;13.18;84.67
76864;BME280;65834;52.364;9.754;2023-10-08T06:59:53;101898.94;;;13.15;85.07
76864;BME280;65834;52.364;9.754;2023-10-08T07:02:23;101900.13;;;13.13;84.83
76864;BME280;65834;52.364;9.754;2023-10-08T07:04:53;101908.28;;;13.13;85.69
76864;BME280;65834;52.364;9.754;2023-10-08T07:07:26;101896.56;;;13.04;85.18
76864;BME280;65834;52.364;9.754;2023-10-08T07:09:58;101899.28;;;13.04;85.48
76864;BME280;65834;52.364;9.754;2023-10-08T07:12:29;101909.47;;;13.10;86.76
76864;BME280;65834;52.364;9.754;2023-10-08T07:15:02;101918.97;;;13.14;86.75
76864;BME280;65834;52.364;9.754;2023-10-08T07:17:38;101913.03;;;13.11;86.58
76864;BME280;65834;52.364;9.754;2023-10-08T07:20:10;101918.28;;;13.12;85.94
76864;BME280;65834;52.364;9.754;2023-10-08T07:22:44;101915.38;;;13.14;85.48
76864;BME280;65834;52.364;9.754;2023-10-08T07:25:21;101940.19;;;13.19;86.86
76864;BME280;65834;52.364;9.754;2023-10-08T07:27:51;101949.38;;;13.26;86.45
76864;BME280;65834;52.364;9.754;2023-10-08T07:30:20;101951.53;;;13.30;85.95
76864;BME280;65834;52.364;9.754;2023-10-08T07:32:53;101935.56;;;13.35;85.93
76864;BME280;65834;52.364;9.754;2023-10-08T07:35:25;101934.72;;;13.43;84.90
76864;BME280;65834;52.364;9.754;2023-10-08T07:37:59;101924.84;;;13.50;85.74
76864;BME280;65834;52.364;9.754;2023-10-08T07:40:35;101921.41;;;13.56;85.50
76864;BME280;65834;52.364;9.754;2023-10-08T07:43:05;101929.75;;;13.54;84.51
76864;BME280;65834;52.364;9.754;2023-10-08T07:45:35;101929.88;;;13.61;85.09
76864;BME280;65834;52.364;9.754;2023-10-08T07:48:06;101931.25;;;13.65;85.19
76864;BME280;65834;52.364;9.754;2023-10-08T07:50:41;101941.56;;;13.78;84.55
76864;BME280;65834;52.364;9.754;2023-10-08T07:53:15;101936.94;;;13.86;84.21
76864;BME280;65834;52.364;9.754;2023-10-08T07:55:47;101947.13;;;13.92;83.63
76864;BME280;65834;52.364;9.754;2023-10-08T07:58:18;101948.66;;;13.87;83.35
76864;BME280;65834;52.364;9.754;2023-10-08T08:00:47;101951.56;;;13.85;82.97
76864;BME280;65834;52.364;9.754;2023-10-08T08:03:21;101963.63;;;13.83;83.53
76864;BME280;65834;52.364;9.754;2023-10-08T08:05:51;101956.13;;;13.85;83.10
76864;BME280;65834;52.364;9.754;2023-10-08T08:08:25;101937.66;;;13.80;81.81
76864;BME280;65834;52.364;9.754;2023-10-08T08:10:54;101949.38;;;13.81;79.89
76864;BME280;65834;52.364;9.754;2023-10-08T08:13:30;101956.69;;;13.80;80.97
76864;BME280;65834;52.364;9.754;2023-10-08T08:16:00;101941.41;;;13.71;79.13
76864;BME280;65834;52.364;9.754;2023-10-08T08:18:43;101964.66;;;13.82;79.79
76864;BME280;65834;52.364;9.754;2023-10-08T08:21:13;101973.97;;;13.87;79.99
76864;BME280;65834;52.364;9.754;2023-10-08T08:23:47;101979.25;;;13.89;79.63
76864;BME280;65834;52.364;9.754;2023-10-08T08:26:18;101976.69;;;13.87;78.45
76864;BME280;65834;52.364;9.754;2023-10-08T08:29:03;101971.78;;;13.83;75.82
76864;BME280;65834;52.364;9.754;2023-10-08T08:31:35;101972.59;;;13.91;76.02
76864;BME280;65834;52.364;9.754;2023-10-08T08:34:06;101978.91;;;13.92;74.94
76864;BME280;65834;52.364;9.754;2023-10-08T08:36:44;101975.31;;;13.91;75.16
76864;BME280;65834;52.364;9.754;2023-10-08T08:39:18;101987.91;;;13.92;74.17
76864;BME280;65834;52.364;9.754;2023-10-08T08:41:59;101992.16;;;13.95;74.93
76864;BME280;65834;52.364;9.754;2023-10-08T08:44:32;101986.00;;;14.01;75.33
76864;BME280;65834;52.364;9.754;2023-10-08T08:47:03;101992.66;;;13.98;75.22
76864;BME280;65834;52.364;9.754;2023-10-08T08:49:36;101990.06;;;14.05;75.45
76864;BME280;65834;52.364;9.754;2023-10-08T08:52:06;101990.06;;;14.05;75.18
76864;BME280;65834;52.364;9.754;2023-10-08T08:54:38;101997.19;;;14.06;72.61
76864;BME280;65834;52.364;9.754;2023-10-08T08:57:09;102003.50;;;14.06;71.99
76864;BME280;65834;52.364;9.754;2023-10-08T08:59:44;102003.13;;;14.18;72.08
76864;BME280;65834;52.364;9.754;2023-10-08T09:02:17;102010.38;;;14.25;71.23
76864;BME280;65834;52.364;9.754;2023-10-08T09:04:48;102006.34;;;14.21;72.04
76864;BME280;65834;52.364;9.754;2023-10-08T09:07:23;102017.03;;;14.23;72.56
76864;BME280;65834;52.364;9.754;2023-10-08T09:09:56;102038.44;;;14.26;70.91
76864;BME280;65834;52.364;9.754;2023-10-08T09:12:26;102030.78;;;14.29;68.04
76864;BME280;65834;52.364;9.754;2023-10-08T09:15:00;102028.41;;;14.26;67.78
76864;BME280;65834;52.364;9.754;2023-10-08T09:17:39;102025.16;;;14.31;67.08
76864;BME280;65834;52.364;9.754;2023-10-08T09:20:09;102032.31;;;14.32;67.65
76864;BME280;65834;52.364;9.754;2023-10-08T09:22:39;102035.00;;;14.40;67.76
76864;BME280;65834;52.364;9.754;2023-10-08T09:25:11;102041.94;;;14.50;68.58
76864;BME280;65834;52.364;9.754;2023-10-08T09:27:42;102039.50;;;14.55;67.11
76864;BME280;65834;52.364;9.754;2023-10-08T09:30:13;102039.66;;;14.62;67.88
76864;BME280;65834;52.364;9.754;2023-10-08T09:32:45;102033.84;;;14.65;68.24
76864;BME280;65834;52.364;9.754;2023-10-08T09:35:22;102022.38;;;14.78;68.14
76864;BME280;65834;52.364;9.754;2023-10-08T09:37:54;102026.59;;;14.80;67.16
76864;BME280;65834;52.364;9.754;2023-10-08T09:40:26;102038.09;;;14.68;65.82
76864;BME280;65834;52.364;9.754;2023-10-08T09:42:56;102035.72;;;14.64;64.82
76864;BME280;65834;52.364;9.754;2023-10-08T09:45:26;102034.22;;;14.62;64.48
76864;BME280;65834;52.364;9.754;2023-10-08T09:47:56;102042.03;;;14.65;65.46
76864;BME280;65834;52.364;9.754;2023-10-08T09:50:36;102028.81;;;14.77;65.94
76864;BME280;65834;52.364;9.754;2023-10-08T09:53:09;102018.84;;;14.69;64.34
76864;BME280;65834;52.364;9.754;2023-10-08T09:55:52;102017.84;;;14.70;65.89
76864;BME280;65834;52.364;9.754;2023-10-08T09:58:24;102026.44;;;14.82;66.15
76864;BME280;65834;52.364;9.754;2023-10-08T10:00:55;102035.31;;;14.76;64.31
76864;BME280;65834;52.364;9.754;2023-10-08T10:03:26;102030.53;;;14.78;64.20
76864;BME280;65834;52.364;9.754;2023-10-08T10:05:56;102027.22;;;14.90;65.68
76864;BME280;65834;52.364;9.754;2023-10-08T10:08:28;102024.41;;;14.98;65.05
76864;BME280;65834;52.364;9.754;2023-10-08T10:11:05;102026.91;;;15.08;65.06
76864;BME280;65834;52.364;9.754;2023-10-08T10:13:39;102020.06;;;15.12;64.72
76864;BME280;65834;52.364;9.754;2023-10-08T10:16:10;102010.50;;;15.16;64.07
76864;BME280;65834;52.364;9.754;2023-10-08T10:18:43;102016.25;;;15.21;64.08
76864;BME280;65834;52.364;9.754;2023-10-08T10:21:25;102026.25;;;15.29;63.68
76864;BME280;65834;52.364;9.754;2023-10-08T10:23:55;102033.84;;;15.33;62.30
76864;BME280;65834;52.364;9.754;2023-10-08T10:26:29;102026.66;;;15.40;60.59
76864;BME280;65834;52.364;9.754;2023-10-08T10:29:22;102034.94;;;15.47;62.52
76864;BME280;65834;52.364;9.754;2023-10-08T10:31:54;102055.69;;;15.56;61.25
76864;BME280;65834;52.364;9.754;2023-10-08T10:34:26;102067.72;;;15.61;60.60
76864;BME280;65834;52.364;9.754;2023-10-08T10:36:58;102076.56;;;15.63;57.56
76864;BME280;65834;52.364;9.754;2023-10-08T10:39:35;102062.06;;;15.63;58.32
76864;BME280;65834;52.364;9.754;2023-10-08T10:42:11;102049.44;;;15.47;57.77
76864;BME280;65834;52.364;9.754;2023-10-08T10:44:49;102065.97;;;15.46;58.65
76864;BME280;65834;52.364;9.754;2023-10-08T10:47:20;102054.19;;;15.45;57.73
76864;BME280;65834;52.364;9.754;2023-10-08T10:49:54;102049.91;;;15.51;58.40
76864;BME280;65834;52.364;9.754;2023-10-08T10:52:44;102043.53;;;15.58;58.42
76864;BME280;65834;52.364;9.754;2023-10-08T10:55:20;102041.09;;;15.63;59.37
76864;BME280;65834;52.364;9.754;2023-10-08T10:58:01;102056.25;;;15.66;59.58
76864;BME280;65834;52.364;9.754;2023-10-08T11:00:41;102062.75;;;15.65;59.14
76864;BME280;65834;52.364;9.754;2023-10-08T11:03:24;102052.50;;;15.67;60.08
76864;BME280;65834;52.364;9.754;2023-10-08T11:05:55;102065.97;;;15.68;60.11
76864;BME280;65834;52.364;9.754;2023-10-08T11:08:27;102045.44;;;15.72;60.93
76864;BME280;65834;52.364;9.754;2023-10-08T11:11:02;102043.19;;;15.76;61.38
76864;BME280;65834;52.364;9.754;2023-10-08T11:13:40;102036.13;;;15.82;59.99
76864;BME280;65834;52.364;9.754;2023-10-08T11:16:09;102055.34;;;15.88;60.79
76864;BME280;65834;52.364;9.754;2023-10-08T11:18:44;102063.16;;;15.91;60.31
76864;BME280;65834;52.364;9.754;2023-10-08T11:21:17;102058.16;;;15.95;60.39
76864;BME280;65834;52.364;9.754;2023-10-08T11:23:52;102017.69;;;15.98;59.99
76864;BME280;65834;52.364;9.754;2023-10-08T11:26:23;102016.69;;;15.99;58.09
76864;BME280;65834;52.364;9.754;2023-10-08T11:29:05;102016.94;;;16.04;59.28
76864;BME280;65834;52.364;9.754;2023-10-08T11:31:41;102033.59;;;16.09;58.81
76864;BME280;65834;52.364;9.754;2023-10-08T11:34:11;102063.44;;;16.11;58.31
76864;BME280;65834;52.364;9.754;2023-10-08T11:36:52;102069.75;;;16.11;57.94
76864;BME280;65834;52.364;9.754;2023-10-08T11:39:22;102069.19;;;16.16;58.80
76864;BME280;65834;52.364;9.754;2023-10-08T11:41:58;102058.56;;;16.21;56.05
76864;BME280;65834;52.364;9.754;2023-10-08T11:44:44;102025.84;;;16.27;57.68
76864;BME280;65834;52.364;9.754;2023-10-08T11:47:14;102012.66;;;16.31;55.44
76864;BME280;65834;52.364;9.754;2023-10-08T11:49:48;102009.38;;;16.36;56.89
76864;BME280;65834;52.364;9.754;2023-10-08T11:52:24;101997.69;;;16.42;56.04
76864;BME280;65834;52.364;9.754;2023-10-08T11:54:55;102027.81;;;16.48;57.11
76864;BME280;65834;52.364;9.754;2023-10-08T11:57:24;102038.00;;;16.54;56.58
76864;BME280;65834;52.364;9.754;2023-10-08T12:00:00;102021.75;;;16.67;55.01
76864;BME280;65834;52.364;9.754;2023-10-08T12:02:57;102027.84;;;16.84;54.03
76864;BME280;65834;52.364;9.754;2023-10-08T12:05:29;102037.06;;;16.83;56.55
76864;BME280;65834;52.364;9.754;2023-10-08T12:08:01;102035.63;;;16.87;54.37
76864;BME280;65834;52.364;9.754;2023-10-08T12:10:35;102020.28;;;16.86;56.27
76864;BME280;65834;52.364;9.754;2023-10-08T12:13:04;102020.47;;;16.85;55.11
76864;BME280;65834;52.364;9.754;2023-10-08T12:15:39;102020.47;;;16.85;55.15
76864;BME280;65834;52.364;9.754;2023-10-08T12:18:11;102014.81;;;16.86;55.06
76864;BME280;65834;52.364;9.754;2023-10-08T12:20:52;102020.66;;;16.83;52.93
76864;BME280;65834;52.364;9.754;2023-10-08T12:23:22;102020.03;;;16.81;53.18
76864;BME280;65834;52.364;9.754;2023-10-08T12:25:56;102007.59;;;16.78;54.70
76864;BME280;65834;52.364;9.754;2023-10-08T12:28:26;102011.56;;;16.76;55.79
76864;BME280;65834;52.364;9.754;2023-10-08T12:30:59;102011.50;;;16.69;52.96
76864;BME280;65834;52.364;9.754;2023-10-08T12:33:30;102015.25;;;16.68;52.93
76864;BME280;65834;52.364;9.754;2023-10-08T12:36:01;102012.66;;;16.60;53.59
76864;BME280;65834;52.364;9.754;2023-10-08T12:38:39;102000.75;;;16.53;52.90
76864;BME280;65834;52.364;9.754;2023-10-08T12:41:11;102002.38;;;16.48;52.52
76864;BME280;65834;52.364;9.754;2023-10-08T12:43:42;101994.84;;;16.50;53.61
76864;BME280;65834;52.364;9.754;2023-10-08T12:46:15;101985.13;;;16.47;53.06
76864;BME280;65834;52.364;9.754;2023-10-08T12:48:51;101979.50;;;16.49;55.26
76864;BME280;65834;52.364;9.754;2023-10-08T12:51:23;101967.97;;;16.53;57.01
76864;BME280;65834;52.364;9.754;2023-10-08T12:53:59;101953.97;;;16.56;57.07
76864;BME280;65834;52.364;9.754;2023-10-08T12:56:31;101939.47;;;16.56;55.95
76864;BME280;65834;52.364;9.754;2023-10-08T12:59:06;101939.75;;;16.61;56.67
76864;BME280;65834;52.364;9.754;2023-10-08T13:01:50;101944.81;;;16.64;56.63
76864;BME280;65834;52.364;9.754;2023-10-08T13:04:22;101944.22;;;16.68;57.02
76864;BME280;65834;52.364;9.754;2023-10-08T13:06:57;101950.53;;;16.69;55.42
76864;BME280;65834;52.364;9.754;2023-10-08T13:09:29;101947.59;;;16.70;56.49
76864;BME280;65834;52.364;9.754;2023-10-08T13:12:04;101957.31;;;16.73;56.68
76864;BME280;65834;52.364;9.754;2023-10-08T13:14:37;101957.94;;;16.75;57.30
76864;BME280;65834;52.364;9.754;2023-10-08T13:17:15;101962.38;;;16.76;57.48
76864;BME280;65834;52.364;9.754;2023-10-08T13:19:46;101967.63;;;16.77;56.04
76864;BME280;65834;52.364;9.754;2023-10-08T13:22:15;101965.94;;;16.76;54.12
76864;BME280;65834;52.364;9.754;2023-10-08T13:24:46;101960.47;;;16.76;52.91
76864;BME280;65834;52.364;9.754;2023-10-08T13:27:16;101968.47;;;16.78;55.25
76864;BME280;65834;52.364;9.754;2023-10-08T13:29:46;101967.63;;;16.77;55.57